Terminal Aerodrome Forecast
Issued by NWS

Home | Current Version | Previous Version | Text Only | Print | Product List | Glossary Off
Versions: 1 2 3 4 5 6 7 8 9 10 11 12 13 14 15 16 17 18 19 20

185
FTUS42 KMHX 172134 AAA
TAFPGV
TAF AMD
KPGV 172134Z 1722/1818 17005KT P6SM VCTS SCT050CB
      TEMPO 1722/1723 5SM -TSRA BKN025CB
     FM180000 17005KT P6SM BKN050
     FM181600 20007KT P6SM VCTS BKN060CB
      AMD LTD TO CLD VIS AND WIND=

USA.gov is the U.S. government's official web portal to all federal, state and local government web resources and services.